sensor_id;sensor_type;location;lat;lon;timestamp;pressure;altitude;pressure_sealevel;temperature;humidity
19789;BME280;10054;59.332;18.244;2023-02-23T00:02:09;101253.66;;;-1.45;100.00
19789;BME280;10054;59.332;18.244;2023-02-23T00:04:39;101253.66;;;-1.48;100.00
19789;BME280;10054;59.332;18.244;2023-02-23T00:07:08;101248.53;;;-1.49;100.00
19789;BME280;10054;59.332;18.244;2023-02-23T00:09:38;101250.25;;;-1.50;100.00
19789;BME280;10054;59.332;18.244;2023-02-23T00:12:07;101245.94;;;-1.49;100.00
19789;BME280;10054;59.332;18.244;2023-02-23T00:14:37;101247.20;;;-1.48;100.00
19789;BME280;10054;59.332;18.244;2023-02-23T00:17:07;101243.73;;;-1.45;100.00
19789;BME280;10054;59.332;18.244;2023-02-23T00:19:37;101227.34;;;-1.44;100.00
19789;BME280;10054;59.332;18.244;2023-02-23T00:22:05;101227.34;;;-1.43;100.00
19789;BME280;10054;59.332;18.244;2023-02-23T00:24:34;101226.48;;;-1.42;100.00
19789;BME280;10054;59.332;18.244;2023-02-23T00:27:04;101227.77;;;-1.40;100.00
19789;BME280;10054;59.332;18.244;2023-02-23T00:29:33;101223.87;;;-1.39;100.00
19789;BME280;10054;59.332;18.244;2023-02-23T00:32:03;101224.73;;;-1.37;100.00
19789;BME280;10054;59.332;18.244;2023-02-23T00:34:32;101217.39;;;-1.36;100.00
19789;BME280;10054;59.332;18.244;2023-02-23T00:37:04;101212.64;;;-1.33;100.00
19789;BME280;10054;59.332;18.244;2023-02-23T00:39:34;101210.47;;;-1.30;100.00
19789;BME280;10054;59.332;18.244;2023-02-23T00:42:03;101205.28;;;-1.29;100.00
19789;BME280;10054;59.332;18.244;2023-02-23T00:44:33;101203.12;;;-1.26;100.00
19789;BME280;10054;59.332;18.244;2023-02-23T00:47:02;101200.52;;;-1.23;100.00
19789;BME280;10054;59.332;18.244;2023-02-23T00:49:31;101192.70;;;-1.13;100.00
19789;BME280;10054;59.332;18.244;2023-02-23T00:52:02;101187.45;;;-1.01;100.00
19789;BME280;10054;59.332;18.244;2023-02-23T00:54:31;101184.83;;;-0.96;100.00
19789;BME280;10054;59.332;18.244;2023-02-23T00:56:59;101181.41;;;-1.01;100.00
19789;BME280;10054;59.332;18.244;2023-02-23T00:59:28;101182.30;;;-1.05;100.00
19789;BME280;10054;59.332;18.244;2023-02-23T01:01:58;101181.45;;;-1.07;100.00
19789;BME280;10054;59.332;18.244;2023-02-23T01:04:26;101176.72;;;-1.11;100.00
19789;BME280;10054;59.332;18.244;2023-02-23T01:06:55;101168.53;;;-1.12;100.00
19789;BME280;10054;59.332;18.244;2023-02-23T01:09:25;101171.55;;;-1.12;100.00
19789;BME280;10054;59.332;18.244;2023-02-23T01:11:57;101166.38;;;-1.12;100.00
19789;BME280;10054;59.332;18.244;2023-02-23T01:14:28;101163.34;;;-1.12;100.00
19789;BME280;10054;59.332;18.244;2023-02-23T01:16:57;101157.73;;;-1.11;100.00
19789;BME280;10054;59.332;18.244;2023-02-23T01:19:26;101152.98;;;-1.10;100.00
19789;BME280;10054;59.332;18.244;2023-02-23T01:21:55;101148.66;;;-1.10;100.00
19789;BME280;10054;59.332;18.244;2023-02-23T01:24:23;101153.83;;;-1.07;100.00
19789;BME280;10054;59.332;18.244;2023-02-23T01:26:52;101150.38;;;-1.07;100.00
19789;BME280;10054;59.332;18.244;2023-02-23T01:29:20;101134.83;;;-1.06;100.00
19789;BME280;10054;59.332;18.244;2023-02-23T01:31:50;101142.59;;;-1.04;100.00
19789;BME280;10054;59.332;18.244;2023-02-23T01:34:20;101140.86;;;-1.04;100.00
19789;BME280;10054;59.332;18.244;2023-02-23T01:36:51;101132.23;;;-1.04;100.00
19789;BME280;10054;59.332;18.244;2023-02-23T01:39:21;101131.78;;;-1.02;100.00
19789;BME280;10054;59.332;18.244;2023-02-23T01:41:51;101133.50;;;-1.01;100.00
19789;BME280;10054;59.332;18.244;2023-02-23T01:46:55;101120.12;;;-1.01;100.00
19789;BME280;10054;59.332;18.244;2023-02-23T01:49:26;101121.41;;;-0.99;100.00
19789;BME280;10054;59.332;18.244;2023-02-23T01:52:05;101115.36;;;-0.98;100.00
19789;BME280;10054;59.332;18.244;2023-02-23T01:54:36;101123.12;;;-0.96;100.00
19789;BME280;10054;59.332;18.244;2023-02-23T01:57:07;101116.20;;;-0.94;100.00
19789;BME280;10054;59.332;18.244;2023-02-23T01:59:46;101101.50;;;-0.92;100.00
19789;BME280;10054;59.332;18.244;2023-02-23T02:02:20;101103.22;;;-0.91;100.00
19789;BME280;10054;59.332;18.244;2023-02-23T02:04:50;101102.77;;;-0.88;100.00
19789;BME280;10054;59.332;18.244;2023-02-23T02:07:25;101102.78;;;-0.89;100.00
19789;BME280;10054;59.332;18.244;2023-02-23T02:09:56;101100.61;;;-0.88;100.00
19789;BME280;10054;59.332;18.244;2023-02-23T02:12:44;101091.55;;;-0.88;100.00
19789;BME280;10054;59.332;18.244;2023-02-23T02:15:13;101090.67;;;-0.87;100.00
19789;BME280;10054;59.332;18.244;2023-02-23T02:20:39;101077.90;;;-0.62;100.00
19789;BME280;10054;59.332;18.244;2023-02-23T02:26:20;101072.33;;;-0.66;100.00
19789;BME280;10054;59.332;18.244;2023-02-23T02:34:50;101053.55;;;-0.86;100.00
19789;BME280;10054;59.332;18.244;2023-02-23T02:40:25;101050.57;;;-0.92;100.00
19789;BME280;10054;59.332;18.244;2023-02-23T02:43:14;101047.14;;;-0.95;100.00
19789;BME280;10054;59.332;18.244;2023-02-23T02:51:34;101035.97;;;-1.01;100.00
19789;BME280;10054;59.332;18.244;2023-02-23T02:54:13;101029.09;;;-1.05;100.00
19789;BME280;10054;59.332;18.244;2023-02-23T02:56:43;101022.63;;;-1.05;100.00
19789;BME280;10054;59.332;18.244;2023-02-23T02:59:17;101023.06;;;-1.05;100.00
19789;BME280;10054;59.332;18.244;2023-02-23T03:02:06;101022.63;;;-1.05;100.00
19789;BME280;10054;59.332;18.244;2023-02-23T03:04:53;101021.33;;;-1.05;100.00
19789;BME280;10054;59.332;18.244;2023-02-23T03:07:44;101012.70;;;-1.05;100.00
19789;BME280;10054;59.332;18.244;2023-02-23T03:10:35;101010.54;;;-1.04;100.00
19789;BME280;10054;59.332;18.244;2023-02-23T03:19:32;100998.47;;;-1.05;100.00
19789;BME280;10054;59.332;18.244;2023-02-23T03:22:29;100991.14;;;-1.06;100.00
19789;BME280;10054;59.332;18.244;2023-02-23T03:25:28;100986.61;;;-0.84;100.00
19789;BME280;10054;59.332;18.244;2023-02-23T03:28:24;100988.56;;;-0.67;100.00
19789;BME280;10054;59.332;18.244;2023-02-23T03:31:34;100977.89;;;-0.75;100.00
19789;BME280;10054;59.332;18.244;2023-02-23T03:34:31;100974.55;;;-0.86;100.00
19789;BME280;10054;59.332;18.244;2023-02-23T03:38:03;100974.64;;;-0.95;100.00
19789;BME280;10054;59.332;18.244;2023-02-23T03:40:17;100967.79;;;-1.01;100.00
19789;BME280;10054;59.332;18.244;2023-02-23T03:43:02;100966.52;;;-1.04;100.00
19789;BME280;10054;59.332;18.244;2023-02-23T03:45:51;100958.34;;;-1.05;100.00
19789;BME280;10054;59.332;18.244;2023-02-23T03:48:42;100954.89;;;-1.06;100.00
19789;BME280;10054;59.332;18.244;2023-02-23T03:51:32;100956.17;;;-1.04;100.00
19789;BME280;10054;59.332;18.244;2023-02-23T03:54:24;100952.70;;;-1.03;100.00
19789;BME280;10054;59.332;18.244;2023-02-23T03:57:09;100953.14;;;-1.04;100.00
19789;BME280;10054;59.332;18.244;2023-02-23T04:00:00;100947.53;;;-1.03;100.00
19789;BME280;10054;59.332;18.244;2023-02-23T04:02:48;100939.34;;;-1.04;100.00
19789;BME280;10054;59.332;18.244;2023-02-23T04:05:38;100947.09;;;-1.03;100.00
19789;BME280;10054;59.332;18.244;2023-02-23T04:08:33;100932.86;;;-1.04;100.00
19789;BME280;10054;59.332;18.244;2023-02-23T04:11:41;100932.43;;;-1.04;100.00
19789;BME280;10054;59.332;18.244;2023-02-23T04:14:35;100923.35;;;-1.02;100.00
19789;BME280;10054;59.332;18.244;2023-02-23T04:17:01;100930.25;;;-1.01;100.00
19789;BME280;10054;59.332;18.244;2023-02-23T04:19:29;100935.86;;;-1.02;100.00
19789;BME280;10054;59.332;18.244;2023-02-23T04:21:58;100922.48;;;-1.01;100.00
19789;BME280;10054;59.332;18.244;2023-02-23T04:24:26;100931.09;;;-0.99;100.00
19789;BME280;10054;59.332;18.244;2023-02-23T04:26:55;100926.77;;;-0.98;100.00
19789;BME280;10054;59.332;18.244;2023-02-23T04:29:23;100921.58;;;-0.97;100.00
19789;BME280;10054;59.332;18.244;2023-02-23T04:31:52;100911.62;;;-0.94;100.00
19789;BME280;10054;59.332;18.244;2023-02-23T04:34:20;100911.95;;;-0.86;100.00
19789;BME280;10054;59.332;18.244;2023-02-23T04:36:49;100900.42;;;-0.62;100.00
19789;BME280;10054;59.332;18.244;2023-02-23T04:39:17;100902.99;;;-0.60;100.00
19789;BME280;10054;59.332;18.244;2023-02-23T04:41:46;100895.75;;;-0.69;100.00
19789;BME280;10054;59.332;18.244;2023-02-23T04:44:17;100900.62;;;-0.76;100.00
19789;BME280;10054;59.332;18.244;2023-02-23T04:46:45;100897.20;;;-0.79;100.00
19789;BME280;10054;59.332;18.244;2023-02-23T04:49:15;100894.65;;;-0.82;100.00
19789;BME280;10054;59.332;18.244;2023-02-23T04:51:44;100900.70;;;-0.83;100.00
19789;BME280;10054;59.332;18.244;2023-02-23T04:54:12;100894.67;;;-0.84;100.00
19789;BME280;10054;59.332;18.244;2023-02-23T04:56:41;100897.26;;;-0.84;100.00
19789;BME280;10054;59.332;18.244;2023-02-23T04:59:10;100883.45;;;-0.84;100.00
19789;BME280;10054;59.332;18.244;2023-02-23T05:01:38;100873.95;;;-0.84;100.00
19789;BME280;10054;59.332;18.244;2023-02-23T05:04:07;100872.66;;;-0.84;100.00
19789;BME280;10054;59.332;18.244;2023-02-23T05:06:35;100878.27;;;-0.84;100.00
19789;BME280;10054;59.332;18.244;2023-02-23T05:09:04;100870.94;;;-0.85;100.00
19789;BME280;10054;59.332;18.244;2023-02-23T05:11:33;100868.77;;;-0.84;100.00
19789;BME280;10054;59.332;18.244;2023-02-23T05:14:01;100863.16;;;-0.83;100.00
19789;BME280;10054;59.332;18.244;2023-02-23T05:16:31;100858.41;;;-0.84;100.00
19789;BME280;10054;59.332;18.244;2023-02-23T05:18:59;100860.98;;;-0.82;100.00
19789;BME280;10054;59.332;18.244;2023-02-23T05:21:28;100864.45;;;-0.83;100.00
19789;BME280;10054;59.332;18.244;2023-02-23T05:23:57;100861.42;;;-0.83;100.00
19789;BME280;10054;59.332;18.244;2023-02-23T05:26:25;100852.77;;;-0.82;100.00
19789;BME280;10054;59.332;18.244;2023-02-23T05:28:54;100843.70;;;-0.82;100.00
19789;BME280;10054;59.332;18.244;2023-02-23T05:31:23;100848.87;;;-0.80;100.00
19789;BME280;10054;59.332;18.244;2023-02-23T05:33:52;100844.98;;;-0.80;100.00
19789;BME280;10054;59.332;18.244;2023-02-23T05:36:21;100843.69;;;-0.80;100.00
19789;BME280;10054;59.332;18.244;2023-02-23T05:38:50;100837.63;;;-0.79;100.00
19789;BME280;10054;59.332;18.244;2023-02-23T05:41:20;100835.02;;;-0.78;100.00
19789;BME280;10054;59.332;18.244;2023-02-23T05:43:50;100831.58;;;-0.78;100.00
19789;BME280;10054;59.332;18.244;2023-02-23T05:46:24;100832.28;;;-0.69;100.00
19789;BME280;10054;59.332;18.244;2023-02-23T05:48:57;100825.43;;;-0.41;100.00
19789;BME280;10054;59.332;18.244;2023-02-23T05:51:31;100821.88;;;-0.34;100.00
19789;BME280;10054;59.332;18.244;2023-02-23T05:54:00;100821.59;;;-0.44;100.00
19789;BME280;10054;59.332;18.244;2023-02-23T05:56:28;100812.20;;;-0.53;100.00
19789;BME280;10054;59.332;18.244;2023-02-23T05:58:58;100809.74;;;-0.62;100.00
19789;BME280;10054;59.332;18.244;2023-02-23T06:01:27;100806.80;;;-0.68;100.00
19789;BME280;10054;59.332;18.244;2023-02-23T06:03:55;100804.66;;;-0.70;100.00
19789;BME280;10054;59.332;18.244;2023-02-23T06:06:24;100799.94;;;-0.72;100.00
19789;BME280;10054;59.332;18.244;2023-02-23T06:08:53;100793.91;;;-0.72;100.00
19789;BME280;10054;59.332;18.244;2023-02-23T06:11:22;100785.72;;;-0.73;100.00
19789;BME280;10054;59.332;18.244;2023-02-23T06:13:50;100786.55;;;-0.71;100.00
19789;BME280;10054;59.332;18.244;2023-02-23T06:16:20;100783.11;;;-0.72;100.00
19789;BME280;10054;59.332;18.244;2023-02-23T06:18:49;100777.92;;;-0.72;100.00
19789;BME280;10054;59.332;18.244;2023-02-23T06:21:18;100774.48;;;-0.72;100.00
19789;BME280;10054;59.332;18.244;2023-02-23T06:23:47;100775.77;;;-0.72;100.00
19789;BME280;10054;59.332;18.244;2023-02-23T06:26:16;100767.59;;;-0.73;100.00
19789;BME280;10054;59.332;18.244;2023-02-23T06:28:44;100766.70;;;-0.72;100.00
19789;BME280;10054;59.332;18.244;2023-02-23T06:31:13;100761.97;;;-0.73;100.00
19789;BME280;10054;59.332;18.244;2023-02-23T06:33:42;100763.23;;;-0.71;100.00
19789;BME280;10054;59.332;18.244;2023-02-23T06:36:10;100760.21;;;-0.71;100.00
19789;BME280;10054;59.332;18.244;2023-02-23T06:38:39;100748.11;;;-0.70;100.00
19789;BME280;10054;59.332;18.244;2023-02-23T06:41:09;100743.35;;;-0.69;100.00
19789;BME280;10054;59.332;18.244;2023-02-23T06:43:38;100751.94;;;-0.66;100.00
19789;BME280;10054;59.332;18.244;2023-02-23T06:46:06;100749.34;;;-0.66;100.00
19789;BME280;10054;59.332;18.244;2023-02-23T06:48:35;100744.14;;;-0.64;100.00
19789;BME280;10054;59.332;18.244;2023-02-23T06:51:04;100744.09;;;-0.61;100.00
19789;BME280;10054;59.332;18.244;2023-02-23T06:53:33;100745.80;;;-0.60;100.00
19789;BME280;10054;59.332;18.244;2023-02-23T06:56:02;100740.97;;;-0.54;100.00
19789;BME280;10054;59.332;18.244;2023-02-23T06:58:31;100737.98;;;-0.28;100.00
19789;BME280;10054;59.332;18.244;2023-02-23T07:00:59;100737.31;;;-0.14;100.00
19789;BME280;10054;59.332;18.244;2023-02-23T07:03:28;100726.55;;;-0.17;100.00
19789;BME280;10054;59.332;18.244;2023-02-23T07:05:56;100732.30;;;-0.25;100.00
19789;BME280;10054;59.332;18.244;2023-02-23T07:08:25;100726.80;;;-0.32;100.00
19789;BME280;10054;59.332;18.244;2023-02-23T07:10:53;100718.69;;;-0.38;100.00
19789;BME280;10054;59.332;18.244;2023-02-23T07:13:24;100723.50;;;-0.42;100.00
19789;BME280;10054;59.332;18.244;2023-02-23T07:15:55;100719.22;;;-0.44;100.00
19789;BME280;10054;59.332;18.244;2023-02-23T07:18:24;100717.07;;;-0.45;100.00
19789;BME280;10054;59.332;18.244;2023-02-23T07:20:53;100711.03;;;-0.45;100.00
19789;BME280;10054;59.332;18.244;2023-02-23T07:23:21;100710.12;;;-0.43;100.00
19789;BME280;10054;59.332;18.244;2023-02-23T07:25:51;100701.91;;;-0.42;100.00
19789;BME280;10054;59.332;18.244;2023-02-23T07:28:20;100707.07;;;-0.41;100.00
19789;BME280;10054;59.332;18.244;2023-02-23T07:30:48;100701.01;;;-0.40;100.00
19789;BME280;10054;59.332;18.244;2023-02-23T07:33:17;100689.32;;;-0.38;100.00
19789;BME280;10054;59.332;18.244;2023-02-23T07:35:45;100691.45;;;-0.36;100.00
19789;BME280;10054;59.332;18.244;2023-02-23T07:38:14;100693.16;;;-0.35;100.00
19789;BME280;10054;59.332;18.244;2023-02-23T07:40:42;100696.14;;;-0.32;100.00
19789;BME280;10054;59.332;18.244;2023-02-23T07:43:12;100678.82;;;-0.30;100.00
19789;BME280;10054;59.332;18.244;2023-02-23T07:45:41;100679.62;;;-0.27;100.00
19789;BME280;10054;59.332;18.244;2023-02-23T07:48:09;100680.02;;;-0.24;100.00
19789;BME280;10054;59.332;18.244;2023-02-23T07:50:40;100679.52;;;-0.21;100.00
19789;BME280;10054;59.332;18.244;2023-02-23T07:53:10;100678.61;;;-0.18;100.00
19789;BME280;10054;59.332;18.244;2023-02-23T07:55:39;100671.20;;;-0.14;100.00
19789;BME280;10054;59.332;18.244;2023-02-23T07:58:08;100671.14;;;-0.11;100.00
19789;BME280;10054;59.332;18.244;2023-02-23T08:00:39;100674.53;;;-0.08;100.00
19789;BME280;10054;59.332;18.244;2023-02-23T08:03:07;100673.18;;;-0.05;100.00
19789;BME280;10054;59.332;18.244;2023-02-23T08:05:37;100664.05;;;-0.02;100.00
19789;BME280;10054;59.332;18.244;2023-02-23T08:08:06;100660.04;;;0.03;100.00
19789;BME280;10054;59.332;18.244;2023-02-23T08:10:35;100655.65;;;0.07;100.00
19789;BME280;10054;59.332;18.244;2023-02-23T08:13:05;100649.94;;;0.12;100.00
19789;BME280;10054;59.332;18.244;2023-02-23T08:15:33;100650.26;;;0.17;100.00
19789;BME280;10054;59.332;18.244;2023-02-23T08:18:02;100650.17;;;0.22;100.00
19789;BME280;10054;59.332;18.244;2023-02-23T08:20:31;100649.22;;;0.26;100.00
19789;BME280;10054;59.332;18.244;2023-02-23T08:23:00;100637.48;;;0.29;100.00
19789;BME280;10054;59.332;18.244;2023-02-23T08:25:29;100643.44;;;0.34;100.00
19789;BME280;10054;59.332;18.244;2023-02-23T08:27:59;100632.52;;;0.39;100.00
19789;BME280;10054;59.332;18.244;2023-02-23T08:30:29;100631.98;;;0.44;100.00
19789;BME280;10054;59.332;18.244;2023-02-23T08:32:58;100627.90;;;0.53;100.00
19789;BME280;10054;59.332;18.244;2023-02-23T08:35:27;100617.84;;;0.77;100.00
19789;BME280;10054;59.332;18.244;2023-02-23T08:37:57;100626.06;;;0.95;100.00
19789;BME280;10054;59.332;18.244;2023-02-23T08:40:28;100620.50;;;0.93;100.00
19789;BME280;10054;59.332;18.244;2023-02-23T08:42:56;100612.91;;;0.84;100.00
19789;BME280;10054;59.332;18.244;2023-02-23T08:45:25;100610.05;;;0.77;100.00
19789;BME280;10054;59.332;18.244;2023-02-23T08:47:55;100613.19;;;0.73;100.00
19789;BME280;10054;59.332;18.244;2023-02-23T08:50:24;100610.52;;;0.75;100.00
19789;BME280;10054;59.332;18.244;2023-02-23T08:52:53;100604.38;;;0.79;100.00
19789;BME280;10054;59.332;18.244;2023-02-23T08:55:21;100599.11;;;0.82;100.00
19789;BME280;10054;59.332;18.244;2023-02-23T08:57:50;100596.41;;;0.86;100.00
19789;BME280;10054;59.332;18.244;2023-02-23T09:00:19;100588.55;;;0.89;100.00
19789;BME280;10054;59.332;18.244;2023-02-23T09:02:48;100586.77;;;0.91;100.00
19789;BME280;10054;59.332;18.244;2023-02-23T09:05:17;100585.84;;;0.94;100.00
19789;BME280;10054;59.332;18.244;2023-02-23T09:07:45;100584.10;;;0.94;100.00
19789;BME280;10054;59.332;18.244;2023-02-23T09:10:18;100582.32;;;0.96;100.00
19789;BME280;10054;59.332;18.244;2023-02-23T09:12:46;100583.17;;;0.97;100.00
19789;BME280;10054;59.332;18.244;2023-02-23T09:15:15;100580.13;;;0.97;100.00
19789;BME280;10054;59.332;18.244;2023-02-23T09:17:44;100571.93;;;0.96;100.00
19789;BME280;10054;59.332;18.244;2023-02-23T09:20:15;100569.27;;;0.99;100.00
19789;BME280;10054;59.332;18.244;2023-02-23T09:22:44;100570.97;;;1.01;100.00
19789;BME280;10054;59.332;18.244;2023-02-23T09:25:21;100556.41;;;1.29;100.00
19789;BME280;10054;59.332;18.244;2023-02-23T09:27:48;100551.52;;;1.49;100.00
19789;BME280;10054;59.332;18.244;2023-02-23T09:30:18;100548.66;;;1.44;100.00
19789;BME280;10054;59.332;18.244;2023-02-23T09:32:48;100548.94;;;1.33;100.00
19789;BME280;10054;59.332;18.244;2023-02-23T09:35:18;100547.88;;;1.24;100.00
19789;BME280;10054;59.332;18.244;2023-02-23T09:37:49;100544.02;;;1.22;100.00
19789;BME280;10054;59.332;18.244;2023-02-23T09:40:28;100541.83;;;1.23;100.00
19789;BME280;10054;59.332;18.244;2023-02-23T09:43:05;100539.59;;;1.26;100.00
19789;BME280;10054;59.332;18.244;2023-02-23T09:45:41;100532.57;;;1.29;100.00
19789;BME280;10054;59.332;18.244;2023-02-23T09:48:24;100531.11;;;1.36;100.00
19789;BME280;10054;59.332;18.244;2023-02-23T09:50:54;100527.50;;;1.41;100.00
19789;BME280;10054;59.332;18.244;2023-02-23T09:53:38;100525.23;;;1.45;100.00
19789;BME280;10054;59.332;18.244;2023-02-23T09:56:17;100523.92;;;1.45;100.00
19789;BME280;10054;59.332;18.244;2023-02-23T09:58:41;100526.81;;;1.49;100.00
19789;BME280;10054;59.332;18.244;2023-02-23T10:01:36;100525.84;;;1.53;100.00
19789;BME280;10054;59.332;18.244;2023-02-23T10:04:06;100523.08;;;1.59;100.00
19789;BME280;10054;59.332;18.244;2023-02-23T10:06:34;100522.02;;;1.67;100.00
19789;BME280;10054;59.332;18.244;2023-02-23T10:17:45;100513.35;;;2.12;100.00
19789;BME280;10054;59.332;18.244;2023-02-23T10:22:48;100498.50;;;2.15;100.00
19789;BME280;10054;59.332;18.244;2023-02-23T10:25:24;100495.95;;;2.14;100.00
19789;BME280;10054;59.332;18.244;2023-02-23T10:27:54;100492.35;;;2.18;100.00
19789;BME280;10054;59.332;18.244;2023-02-23T10:30:32;100492.98;;;2.24;100.00
19789;BME280;10054;59.332;18.244;2023-02-23T10:35:51;100484.00;;;2.21;100.00
19789;BME280;10054;59.332;18.244;2023-02-23T10:38:20;100476.34;;;2.17;100.00
19789;BME280;10054;59.332;18.244;2023-02-23T10:40:53;100469.16;;;2.10;100.00
19789;BME280;10054;59.332;18.244;2023-02-23T10:43:20;100468.45;;;2.05;100.00
19789;BME280;10054;59.332;18.244;2023-02-23T10:45:51;100469.66;;;1.93;100.00
19789;BME280;10054;59.332;18.244;2023-02-23T10:48:28;100458.67;;;1.84;100.00
19789;BME280;10054;59.332;18.244;2023-02-23T10:50:56;100452.44;;;1.75;100.00
19789;BME280;10054;59.332;18.244;2023-02-23T10:53:35;100451.27;;;1.70;100.00
19789;BME280;10054;59.332;18.244;2023-02-23T10:56:06;100438.89;;;1.63;100.00
19789;BME280;10054;59.332;18.244;2023-02-23T10:58:48;100441.58;;;1.60;100.00
19789;BME280;10054;59.332;18.244;2023-02-23T11:01:38;100440.78;;;1.58;100.00
19789;BME280;10054;59.332;18.244;2023-02-23T11:03:51;100431.67;;;1.58;100.00
19789;BME280;10054;59.332;18.244;2023-02-23T11:06:29;100432.17;;;1.56;100.00
19789;BME280;10054;59.332;18.244;2023-02-23T11:08:58;100430.42;;;1.57;100.00
19789;BME280;10054;59.332;18.244;2023-02-23T11:11:28;100423.87;;;1.58;100.00
19789;BME280;10054;59.332;18.244;2023-02-23T11:13:57;100423.47;;;1.57;100.00
19789;BME280;10054;59.332;18.244;2023-02-23T11:16:30;100424.73;;;1.59;100.00
19789;BME280;10054;59.332;18.244;2023-02-23T11:19:02;100412.98;;;1.60;100.00
19789;BME280;10054;59.332;18.244;2023-02-23T11:21:33;100416.44;;;1.61;100.00
19789;BME280;10054;59.332;18.244;2023-02-23T11:24:18;100415.14;;;1.61;100.00
19789;BME280;10054;59.332;18.244;2023-02-23T11:26:49;100409.48;;;1.61;100.00
19789;BME280;10054;59.332;18.244;2023-02-23T11:29:29;100400.97;;;1.56;100.00
19789;BME280;10054;59.332;18.244;2023-02-23T11:31:57;100407.88;;;1.57;100.00
19789;BME280;10054;59.332;18.244;2023-02-23T11:34:32;100399.72;;;1.55;100.00
19789;BME280;10054;59.332;18.244;2023-02-23T11:37:05;100398.42;;;1.55;100.00
19789;BME280;10054;59.332;18.244;2023-02-23T11:39:34;100390.62;;;1.55;100.00
19789;BME280;10054;59.332;18.244;2023-02-23T11:42:24;100388.11;;;1.52;100.00
19789;BME280;10054;59.332;18.244;2023-02-23T11:45:03;100379.45;;;1.51;100.00
19789;BME280;10054;59.332;18.244;2023-02-23T11:47:37;100375.96;;;1.52;100.00
19789;BME280;10054;59.332;18.244;2023-02-23T11:50:04;100371.12;;;1.55;100.00
19789;BME280;10054;59.332;18.244;2023-02-23T11:52:34;100368.83;;;1.59;100.00
19789;BME280;10054;59.332;18.244;2023-02-23T11:55:04;100366.99;;;1.62;100.00
19789;BME280;10054;59.332;18.244;2023-02-23T11:57:35;100363.94;;;1.63;100.00
19789;BME280;10054;59.332;18.244;2023-02-23T12:00:19;100357.26;;;1.69;100.00
19789;BME280;10054;59.332;18.244;2023-02-23T12:02:56;100358.91;;;1.72;100.00
19789;BME280;10054;59.332;18.244;2023-02-23T12:05:28;100352.51;;;1.69;100.00
19789;BME280;10054;59.332;18.244;2023-02-23T12:08:03;100344.44;;;1.63;100.00
19789;BME280;10054;59.332;18.244;2023-02-23T12:10:46;100344.63;;;1.57;100.00
19789;BME280;10054;59.332;18.244;2023-02-23T12:13:39;100341.72;;;1.53;100.00
19789;BME280;10054;59.332;18.244;2023-02-23T12:16:25;100336.20;;;1.49;100.00
19789;BME280;10054;59.332;18.244;2023-02-23T12:19:10;100331.48;;;1.48;100.00
19789;BME280;10054;59.332;18.244;2023-02-23T12:21:42;100327.28;;;1.44;100.00
19789;BME280;10054;59.332;18.244;2023-02-23T12:24:14;100317.78;;;1.43;100.00
19789;BME280;10054;59.332;18.244;2023-02-23T12:26:57;100319.57;;;1.41;100.00
19789;BME280;10054;59.332;18.244;2023-02-23T12:29:38;100316.57;;;1.40;100.00
19789;BME280;10054;59.332;18.244;2023-02-23T12:32:24;100316.17;;;1.39;100.00
19789;BME280;10054;59.332;18.244;2023-02-23T12:40:16;100305.50;;;1.34;100.00
19789;BME280;10054;59.332;18.244;2023-02-23T12:43:00;100300.80;;;1.31;100.00
19789;BME280;10054;59.332;18.244;2023-02-23T12:45:44;100295.61;;;1.31;100.00
19789;BME280;10054;59.332;18.244;2023-02-23T12:50:52;100292.61;;;1.30;100.00
19789;BME280;10054;59.332;18.244;2023-02-23T12:53:41;100296.81;;;1.35;100.00
19789;BME280;10054;59.332;18.244;2023-02-23T12:56:30;100288.03;;;1.39;100.00
19789;BME280;10054;59.332;18.244;2023-02-23T12:59:25;100282.34;;;1.41;100.00
19789;BME280;10054;59.332;18.244;2023-02-23T13:02:00;100283.98;;;1.43;100.00
19789;BME280;10054;59.332;18.244;2023-02-23T13:10:08;100268.84;;;1.43;100.00
19789;BME280;10054;59.332;18.244;2023-02-23T13:15:45;100256.16;;;1.47;100.00
19789;BME280;10054;59.332;18.244;2023-02-23T13:18:28;100254.73;;;1.50;100.00
19789;BME280;10054;59.332;18.244;2023-02-23T13:26:43;100240.69;;;1.55;100.00
19789;BME280;10054;59.332;18.244;2023-02-23T13:29:30;100237.39;;;1.50;100.00
19789;BME280;10054;59.332;18.244;2023-02-23T13:32:00;100237.61;;;1.44;100.00
19789;BME280;10054;59.332;18.244;2023-02-23T13:34:35;100233.31;;;1.43;100.00
19789;BME280;10054;59.332;18.244;2023-02-23T13:37:06;100232.51;;;1.41;100.00
19789;BME280;10054;59.332;18.244;2023-02-23T13:39:42;100223.45;;;1.40;100.00
19789;BME280;10054;59.332;18.244;2023-02-23T13:42:20;100218.71;;;1.39;100.00
19789;BME280;10054;59.332;18.244;2023-02-23T13:45:01;100221.26;;;1.41;100.00
19789;BME280;10054;59.332;18.244;2023-02-23T13:47:46;100221.66;;;1.42;100.00
19789;BME280;10054;59.332;18.244;2023-02-23T13:50:32;100220.41;;;1.40;100.00
19789;BME280;10054;59.332;18.244;2023-02-23T13:53:03;100209.27;;;1.37;100.00
19789;BME280;10054;59.332;18.244;2023-02-23T13:55:33;100211.05;;;1.35;100.00
19789;BME280;10054;59.332;18.244;2023-02-23T13:58:12;100200.36;;;1.30;100.00
19789;BME280;10054;59.332;18.244;2023-02-23T14:00:42;100205.60;;;1.29;100.00
19789;BME280;10054;59.332;18.244;2023-02-23T14:03:25;100199.16;;;1.27;100.00
19789;BME280;10054;59.332;18.244;2023-02-23T14:05:59;100196.16;;;1.26;100.00
19789;BME280;10054;59.332;18.244;2023-02-23T14:08:36;100185.81;;;1.25;100.00
19789;BME280;10054;59.332;18.244;2023-02-23T14:11:06;100184.95;;;1.24;100.00